createdAt,value
2023-04-13T05:01:26.815Z,84.26
2023-04-13T05:06:40.972Z,83.61
2023-04-13T05:11:44.901Z,83.21
2023-04-13T05:16:51.103Z,82.82
2023-04-13T05:22:15.507Z,82.12
2023-04-13T05:27:25.192Z,82.44
2023-04-13T05:32:29.348Z,81.97
2023-04-13T05:37:34.213Z,81.98
2023-04-13T05:42:36.938Z,81.66
2023-04-13T05:47:40.113Z,82.84
2023-04-13T05:52:47.149Z,82.12
2023-04-13T05:57:48.772Z,81.75
2023-04-13T06:02:51.696Z,81.87
2023-04-13T06:07:53.960Z,81.24
2023-04-13T06:12:55.668Z,81.25
2023-04-13T06:17:57.237Z,80.87
2023-04-13T06:22:58.938Z,80.09
2023-04-13T06:28:02.537Z,80.64
2023-04-13T06:33:06.230Z,80.24
2023-04-13T06:38:10.153Z,79.63
2023-04-13T06:43:29.483Z,78.93
2023-04-13T06:48:50.556Z,78.59
2023-04-13T06:53:56.044Z,79.08
2023-04-13T06:59:02.646Z,79.03
2023-04-13T07:04:07.658Z,78.68
2023-04-13T07:09:10.083Z,78.87
2023-04-13T07:14:11.931Z,78.83
2023-04-13T07:19:14.073Z,78.47
2023-04-13T07:24:15.925Z,77.80
2023-04-13T07:29:19.388Z,76.97
2023-04-13T07:34:27.329Z,76.79
2023-04-13T07:39:29.200Z,77.31
2023-04-13T07:44:31.106Z,76.89
2023-04-13T07:49:32.767Z,77.34
2023-04-13T07:54:36.348Z,77.52
2023-04-13T07:59:40.926Z,76.67
2023-04-13T08:04:44.583Z,75.91
2023-04-13T08:09:50.038Z,76.09
2023-04-13T08:14:51.686Z,76.31
2023-04-13T08:19:54.320Z,75.42
2023-04-13T08:24:56.500Z,75.61
2023-04-13T08:30:01.837Z,75.87
2023-04-13T08:35:11.590Z,76.02
2023-04-13T08:40:14.017Z,75.08
2023-04-13T08:45:18.508Z,74.45
2023-04-13T08:50:22.715Z,74.18
2023-04-13T08:55:29.362Z,73.26
2023-04-13T09:00:35.810Z,72.99
2023-04-13T09:05:42.093Z,72.82
2023-04-13T09:10:44.809Z,71.98
2023-04-13T09:15:50.820Z,72.16
2023-04-13T09:20:59.939Z,72.16
2023-04-13T09:26:06.381Z,74.05
2023-04-13T09:31:08.673Z,72.00
2023-04-13T09:36:11.592Z,71.31
2023-04-13T09:41:13.131Z,69.81
2023-04-13T09:46:14.850Z,70.29
2023-04-13T09:51:16.931Z,70.23
2023-04-13T09:56:20.353Z,70.22
2023-04-13T10:01:23.119Z,69.96
2023-04-13T10:06:24.771Z,70.03
2023-04-13T10:11:26.296Z,70.20
2023-04-13T10:16:28.113Z,69.30
2023-04-13T10:21:36.187Z,68.50
2023-04-13T10:26:38.725Z,69.60
2023-04-13T10:31:40.225Z,72.71
2023-04-13T10:36:43.408Z,70.19
2023-04-13T10:41:44.985Z,68.77
2023-04-13T10:46:50.599Z,68.64
2023-04-13T10:51:52.176Z,69.14
2023-04-13T10:57:01.636Z,68.31
2023-04-13T11:02:10.877Z,64.38
2023-04-13T11:07:18.153Z,66.72
2023-04-13T11:12:19.960Z,68.24
2023-04-13T11:17:21.688Z,68.04
2023-04-13T11:22:25.496Z,67.66
2023-04-13T11:27:27.141Z,67.06
2023-04-13T11:32:28.645Z,66.98
2023-04-13T11:37:34.573Z,66.16
2023-04-13T11:42:41.293Z,65.62
2023-04-13T11:47:43.795Z,64.15
2023-04-13T11:52:48.895Z,66.27
2023-04-13T11:57:53.803Z,64.03
2023-04-13T12:03:02.438Z,64.09
2023-04-13T12:08:05.282Z,66.00
2023-04-13T12:23:25.113Z,63.84
2023-04-13T12:28:37.430Z,63.66
2023-04-13T12:33:39.851Z,62.13
2023-04-13T12:38:41.479Z,60.61
2023-04-13T12:43:42.925Z,60.72
2023-04-13T12:48:44.414Z,59.34
2023-04-13T12:53:46.127Z,59.47
2023-04-13T12:58:48.523Z,59.96
2023-04-13T13:03:50.322Z,60.19
2023-04-13T13:08:51.831Z,59.49
2023-04-13T13:13:53.256Z,58.77
2023-04-13T13:18:54.712Z,58.21
2023-04-13T13:23:56.159Z,60.89
2023-04-13T13:28:57.864Z,62.41
2023-04-13T13:33:59.709Z,63.34
2023-04-13T13:39:01.323Z,64.22
2023-04-13T13:44:03.106Z,62.74
2023-04-13T13:49:04.868Z,61.95
2023-04-13T13:54:26.732Z,60.80
2023-04-13T13:59:28.165Z,62.12
2023-04-13T14:04:29.608Z,62.00
2023-04-13T14:09:31.101Z,60.90
2023-04-13T14:14:32.532Z,59.66
2023-04-13T14:19:34.540Z,60.47
2023-04-13T14:24:36.140Z,60.35
2023-04-13T14:29:37.610Z,60.27
2023-04-13T14:34:39.054Z,58.30
2023-04-13T14:39:40.877Z,57.52
2023-04-13T14:44:42.970Z,58.45
2023-04-13T14:49:44.868Z,58.85
2023-04-13T14:54:46.547Z,58.26
2023-04-13T15:04:53.152Z,54.35
2023-04-13T15:09:55.253Z,51.59
2023-04-13T15:14:56.669Z,53.26
2023-04-13T15:19:58.264Z,53.81
2023-04-13T15:25:00.240Z,54.56
2023-04-13T15:30:03.289Z,56.19
2023-04-13T15:35:05.669Z,56.43
2023-04-13T15:40:07.974Z,57.41
2023-04-13T15:45:09.958Z,58.46
2023-04-13T15:50:11.700Z,59.82
2023-04-13T15:55:13.226Z,60.66
2023-04-13T16:00:15.322Z,60.38
2023-04-13T16:05:18.185Z,61.40
2023-04-13T16:10:19.941Z,61.37
2023-04-13T16:15:22.776Z,60.66
2023-04-13T16:20:28.236Z,61.51
2023-04-13T16:25:30.649Z,61.97
2023-04-13T16:30:32.849Z,62.15
2023-04-13T16:35:34.301Z,63.38
2023-04-13T16:40:36.291Z,62.28
2023-04-13T16:45:37.825Z,62.61
2023-04-13T16:50:39.386Z,62.27
2023-04-13T16:55:40.885Z,62.32
2023-04-13T17:00:42.535Z,63.33
2023-04-13T17:05:43.957Z,63.81
2023-04-13T17:10:46.132Z,64.65
2023-04-13T17:15:47.719Z,65.46
2023-04-13T17:20:56.270Z,65.23
2023-04-13T17:25:57.776Z,65.80
2023-04-13T17:30:59.219Z,66.37
2023-04-13T17:36:00.981Z,66.67
2023-04-13T17:41:02.480Z,67.16
2023-04-13T17:46:04.262Z,68.02
2023-04-13T17:51:11.416Z,68.09
2023-04-13T17:56:17.569Z,67.77
2023-04-13T18:01:19.117Z,68.80
2023-04-13T18:06:20.732Z,69.38
2023-04-13T18:11:22.165Z,69.92
2023-04-13T18:16:25.288Z,70.25
2023-04-13T18:21:27.528Z,71.04
2023-04-13T18:26:29.082Z,71.90
2023-04-13T18:31:30.904Z,72.15
2023-04-13T18:36:33.426Z,72.70
2023-04-13T18:41:34.980Z,73.33
2023-04-13T18:46:36.454Z,73.44
2023-04-13T18:51:38.702Z,73.81
2023-04-13T18:56:40.624Z,73.44
2023-04-13T19:01:42.101Z,73.93
2023-04-13T19:06:43.635Z,73.95
2023-04-13T19:11:47.481Z,74.17
2023-04-13T19:16:52.279Z,73.74
2023-04-13T19:21:57.169Z,73.29
2023-04-13T19:26:58.782Z,73.69
2023-04-13T19:32:00.302Z,72.62
2023-04-13T19:37:01.903Z,72.37
2023-04-13T19:42:03.501Z,71.80
2023-04-13T19:47:04.986Z,72.05
2023-04-13T19:52:06.441Z,72.22
2023-04-13T19:57:08.162Z,71.88
2023-04-13T20:02:09.834Z,71.67
2023-04-13T20:07:11.357Z,72.09
2023-04-13T20:12:12.936Z,72.01
2023-04-13T20:17:16.118Z,71.79
2023-04-13T20:22:18.212Z,72.40
2023-04-13T20:27:23.572Z,72.71
2023-04-13T20:32:25.221Z,73.65
2023-04-13T20:37:26.731Z,73.53
2023-04-13T20:42:30.486Z,74.32
2023-04-13T20:47:32.023Z,74.68
2023-04-13T20:52:33.654Z,75.28
2023-04-13T20:57:35.137Z,74.78
2023-04-13T21:02:36.768Z,73.38
2023-04-13T21:07:40.261Z,73.26
2023-04-13T21:12:41.690Z,72.83
2023-04-13T21:17:43.205Z,73.71
2023-04-13T21:22:44.667Z,74.30
2023-04-13T21:27:46.164Z,74.51
2023-04-13T21:32:47.702Z,74.82
2023-04-13T21:37:49.388Z,75.07
2023-04-13T21:42:50.851Z,74.86
2023-04-13T21:47:53.751Z,75.10
2023-04-13T21:52:55.940Z,75.10
2023-04-13T21:57:57.439Z,74.88
